MDT,Max TemperatureF,Mean TemperatureF,Min TemperatureF,Max Dew PointF,MeanDew PointF,Min DewpointF,Max Humidity, Mean Humidity, Min Humidity, Max Sea Level PressureIn, Mean Sea Level PressureIn, Min Sea Level PressureIn, Max VisibilityMiles, Mean VisibilityMiles, Min VisibilityMiles, Max Wind SpeedMPH, Mean Wind SpeedMPH, Max Gust SpeedMPH,PrecipitationIn, CloudCover, Events, WindDirDegrees
2013-8-1,75,65,55,60,52,40,90,60,29,30.04,29.96,29.91,10,9,6,22,8,29,0.28,5,Rain-Thunderstorm,117
2013-8-2,70,61,51,55,51,49,100,74,47,30.11,30.03,29.94,10,10,10,15,5,20,0.02,5,Rain,305
2013-8-3,76,61,46,50,48,45,93,67,41,30.16,30.10,30.05,10,10,10,18,4,22,T,2,,335
2013-8-4,86,67,47,49,46,41,93,58,22,30.13,30.05,29.94,10,10,10,13,3,16,0.00,0,,331
2013-8-5,88,68,48,49,45,41,80,51,21,30.03,29.96,29.87,10,10,10,21,5,30,T,1,Rain,311
2013-8-6,86,70,53,48,45,40,77,49,20,30.04,29.97,29.93,10,10,10,15,3,22,0.00,1,,326
2013-8-7,92,72,51,46,43,38,77,47,16,30.01,29.93,29.85,10,10,10,13,3,16,0.00,0,,329
2013-8-8,90,72,53,50,42,33,66,41,15,30.01,29.94,29.87,10,10,10,15,5,22,0.00,0,,53
2013-8-9,92,80,67,52,49,45,56,40,23,30.03,29.94,29.82,10,10,8,43,13,54,0.00,1,,118
2013-8-10,93,76,58,53,48,39,75,46,17,30.04,29.95,29.85,10,10,10,26,6,32,0.00,0,,115
2013-8-11,85,72,59,49,46,42,64,44,23,30.02,29.96,29.92,10,8,4,17,6,22,0.00,0,,133
2013-8-12,91,72,52,51,45,39,71,45,18,30.06,30.00,29.91,10,10,7,15,4,20,T,0,Rain-Thunderstorm,153
2013-8-13,88,73,58,50,46,37,72,45,17,30.12,30.04,29.97,10,10,10,16,6,22,0.00,0,,10
2013-8-14,93,72,50,49,41,33,77,45,13,30.09,30.00,29.91,10,10,10,17,4,24,0.00,0,,22
2013-8-15,98,75,51,42,36,24,59,34,8,30.01,29.91,29.83,10,10,10,22,2,28,0.00,0,,341
2013-8-16,96,75,54,48,39,34,51,31,11,29.98,29.92,29.85,10,10,10,21,4,25,0.00,0,,341
2013-8-17,90,75,59,53,47,42,64,43,21,30.04,29.96,29.88,10,10,10,22,5,29,0.02,1,Rain,327
2013-8-18,91,74,56,55,45,35,77,46,15,30.06,29.99,29.93,10,10,10,25,7,31,0.00,0,,314
2013-8-19,92,71,50,44,41,38,71,44,16,30.06,29.97,29.88,10,10,10,28,6,33,0.00,0,,290
2013-8-20,88,70,52,45,41,34,68,43,17,30.02,29.97,29.91,10,10,10,21,7,26,0.00,0,,324
2013-8-21,89,69,48,39,35,31,61,37,13,30.12,30.03,29.95,10,10,8,18,4,24,0.00,0,,332
2013-8-22,89,71,52,42,37,33,59,37,15,30.06,29.95,29.82,10,10,8,17,3,23,0.00,0,,294
2013-8-23,88,74,60,54,47,41,67,45,23,29.95,29.82,29.73,10,8,4,25,8,30,0.01,2,,356
2013-8-24,90,71,52,49,44,29,77,45,13,29.92,29.82,29.72,10,10,7,30,4,38,0.00,0,,127
2013-8-25,90,73,55,58,48,38,90,55,19,30.03,29.90,29.76,10,8,6,30,6,38,0.04,1,Rain-Thunderstorm,160
2013-8-26,86,70,54,55,50,43,93,57,21,30.05,29.94,29.84,10,9,7,16,5,23,0.00,0,,326
2013-8-27,89,68,47,45,44,40,80,49,17,30.02,29.97,29.84,10,10,9,5,1,,0.00,0,,285
2013-8-28,83,72,61,55,51,48,67,50,33,30.03,29.94,29.86,10,10,6,17,6,21,0.01,1,Rain,177
2013-8-29,92,72,52,61,54,49,90,58,26,30.07,30.00,29.83,10,9,2,38,4,47,0.03,2,Rain-Thunderstorm,165
2013-8-30,85,68,50,56,48,40,100,62,23,30.14,30.07,30.02,10,10,10,23,5,29,0.00,1,,309
2013-8-31,88,68,47,47,44,42,86,54,21,30.16,30.06,29.95,10,10,10,14,2,18,0.00,0,,338